Maersk Douglas — DCPL2 — position and weather

sailwx.info

Track history (hours):
 
Tides and Currents Weather Stations Pressure Air Temp Water Temp Dewpoint Dewpoint Depression Visibility Wind Speed Wind Dir Waves Ship Positions

Maersk Douglas

Last reported at 2017-Aug-24 01:00 UTC. Time now 2017-Aug-24 01:00 UTC.
Position N 53°33' E 009°58'.

Length 294.1 m; beam 32.2 m; draft 13.7 m.

Type: Tug. MMSI: 211710650.

Date/timePositionNaut miles runAvg speedWind from/ knotsBaromVisibWave heightAir tempDewpointWater temp
2017-Aug-24 01:00N 53°33' E 009°58'0 0.0
2017-Aug-24 00:30N 53°33' E 009°58'0 0.0
2017-Aug-24 00:00N 53°33' E 009°58'0 0.0
2017-Aug-23 23:30N 53°33' E 009°58'0 0.0
2017-Aug-23 23:01N 53°33' E 009°58'0 0.0
2017-Aug-23 22:30N 53°33' E 009°58'0 0.0
2017-Aug-23 22:00N 53°33' E 009°58'0 0.0
2017-Aug-23 21:30N 53°33' E 009°58'0 0.0
2017-Aug-23 21:00N 53°33' E 009°58'0 0.0
2017-Aug-23 20:30N 53°33' E 009°58'0 0.0
2017-Aug-23 20:00N 53°33' E 009°58'0 0.0
2017-Aug-23 19:30N 53°33' E 009°58'0 0.0
2017-Aug-23 19:00N 53°33' E 009°58'1 2.3
2017-Aug-23 18:30N 53°32' E 009°56'1 1.7
2017-Aug-23 18:00N 53°32' E 009°55'0 0.7
2017-Aug-23 17:30N 53°32' E 009°55'1 3.0
2017-Aug-23 17:00N 53°33' E 009°53'3 6.9
2017-Aug-23 16:30N 53°33' E 009°47'2 4.6
2017-Aug-23 16:00N 53°34' E 009°43'3 5.4
2017-Aug-23 15:30N 53°33' E 009°48'4 8.5
2017-Aug-23 15:00N 53°33' E 009°55'0 0.5
2017-Aug-23 14:30N 53°33' E 009°55'0 0.0
2017-Aug-23 13:30N 53°33' E 009°55'0 0.0
2017-Aug-23 13:00N 53°33' E 009°55'0 0.0
2017-Aug-23 12:30N 53°33' E 009°55'0 0.0
2017-Aug-23 12:00N 53°33' E 009°55'0 0.0
2017-Aug-23 11:30N 53°33' E 009°55'0 0.0
2017-Aug-23 11:00N 53°33' E 009°55'0 0.0
2017-Aug-23 10:30N 53°33' E 009°55'0 0.0
2017-Aug-23 10:00N 53°33' E 009°55'0 0.0
2017-Aug-23 09:30N 53°33' E 009°55'0 0.0
2017-Aug-23 09:00N 53°33' E 009°55'0 0.0
2017-Aug-23 08:30N 53°33' E 009°55'0 0.0
2017-Aug-23 08:00N 53°33' E 009°55'0 0.0
2017-Aug-23 07:30N 53°33' E 009°55'0 0.0
2017-Aug-23 07:00N 53°33' E 009°55'0 0.0
2017-Aug-23 06:30N 53°33' E 009°55'0 0.0
2017-Aug-23 06:00N 53°33' E 009°55'0 0.0
2017-Aug-23 05:30N 53°33' E 009°55'0 0.0
2017-Aug-23 05:00N 53°33' E 009°55'0 0.0
2017-Aug-23 04:30N 53°33' E 009°55'0 0.1
2017-Aug-23 04:00N 53°33' E 009°55'2 4.3
2017-Aug-23 03:30N 53°30' E 009°56'2 4.8
2017-Aug-23 03:00N 53°33' E 009°58'0 0.0
2017-Aug-23 02:30N 53°33' E 009°58'0 0.0
2017-Aug-23 02:00N 53°33' E 009°58'0 0.0
2017-Aug-23 01:30N 53°33' E 009°58'0 0.0
2017-Aug-23 01:00N 53°33' E 009°58'0 0.0
2017-Aug-23 00:30N 53°33' E 009°58'0 0.0
2017-Aug-23 00:01N 53°33' E 009°58'0 0.0
2017-Aug-22 23:30N 53°33' E 009°58'0 0.0
2017-Aug-22 23:00N 53°33' E 009°58'0 0.0
2017-Aug-22 22:30N 53°33' E 009°58'0 0.0
2017-Aug-22 22:00N 53°33' E 009°58'0 0.0
2017-Aug-22 21:30N 53°33' E 009°58'0 0.0
2017-Aug-22 21:00N 53°33' E 009°58'0 0.0
2017-Aug-22 20:30N 53°33' E 009°58'0 0.0
2017-Aug-22 20:00N 53°33' E 009°58'0 0.0
2017-Aug-22 19:30N 53°33' E 009°58'0 0.0
2017-Aug-22 19:00N 53°33' E 009°58'0 0.0
2017-Aug-22 18:30N 53°33' E 009°58'0 0.0
2017-Aug-22 18:00N 53°33' E 009°58'0 0.0
2017-Aug-22 17:30N 53°33' E 009°58'0 0.0
2017-Aug-22 17:00N 53°33' E 009°58'0 0.0
2017-Aug-22 16:30N 53°33' E 009°58'3 6.1
2017-Aug-22 16:00N 53°30' E 009°57'0 0.8
2017-Aug-22 15:30N 53°29' E 009°57'1 1.1
2017-Aug-22 15:00N 53°30' E 009°57'1 2.6
2017-Aug-22 14:30N 53°31' E 009°56'2 3.4
2017-Aug-22 14:00N 53°33' E 009°57'1 1.0
2017-Aug-22 13:30N 53°33' E 009°58'0 0.0
2017-Aug-22 13:00N 53°33' E 009°58'0 0.0
2017-Aug-22 12:30N 53°33' E 009°58'0 0.0
2017-Aug-22 12:00N 53°33' E 009°58'0 0.0
2017-Aug-22 11:31N 53°33' E 009°58'0 0.0
2017-Aug-22 11:00N 53°33' E 009°58'0 0.0
2017-Aug-22 10:30N 53°33' E 009°58'0 0.0
2017-Aug-22 10:00N 53°33' E 009°58'0 0.0
2017-Aug-22 09:30N 53°33' E 009°58'0 0.0
2017-Aug-22 09:00N 53°33' E 009°58'0 0.0
2017-Aug-22 08:30N 53°33' E 009°58'0 0.0
2017-Aug-22 08:00N 53°33' E 009°58'0 0.0
2017-Aug-22 07:30N 53°33' E 009°58'0 0.0
2017-Aug-22 07:00N 53°33' E 009°58'0 0.0
2017-Aug-22 06:30N 53°33' E 009°58'0 0.0
2017-Aug-22 06:00N 53°33' E 009°58'0 0.0
2017-Aug-22 05:30N 53°33' E 009°58'0 0.0
2017-Aug-22 05:00N 53°33' E 009°58'2 3.4
2017-Aug-22 04:30N 53°32' E 009°55'2 3.2
2017-Aug-22 04:00N 53°33' E 009°52'0 0.8
2017-Aug-22 03:30N 53°33' E 009°52'3 6.5
2017-Aug-22 03:00N 53°31' E 009°56'0 0.8
2017-Aug-22 02:30N 53°31' E 009°56'0 0.5
2017-Aug-22 02:00N 53°31' E 009°56'2 3.7
2017-Aug-22 01:30N 53°33' E 009°58'0 0.0
2017-Aug-22 01:00N 53°33' E 009°58'0 0.0
2017-Aug-22 00:30N 53°33' E 009°58'0 0.0
2017-Aug-22 00:00N 53°33' E 009°58'1 2.0
2017-Aug-21 23:30N 53°32' E 009°56'4 7.5
2017-Aug-21 23:00N 53°33' E 009°50'0 0.0
2017-Aug-21 22:30N 53°33' E 009°50'0 0.4
2017-Aug-21 22:00N 53°33' E 009°50'4 7.4
2017-Aug-21 21:30N 53°32' E 009°56'2 3.0
2017-Aug-21 21:00N 53°30' E 009°56'0 0.1
2017-Aug-21 20:30N 53°30' E 009°56'2 3.6
2017-Aug-21 20:00N 53°32' E 009°56'1 2.3
2017-Aug-21 19:30N 53°33' E 009°58'0 0.0
2017-Aug-21 19:00N 53°33' E 009°58'0 0.0
2017-Aug-21 18:30N 53°33' E 009°58'0 0.0
2017-Aug-21 18:00N 53°33' E 009°58'0 0.0
2017-Aug-21 17:30N 53°33' E 009°58'0 0.0
2017-Aug-21 17:00N 53°33' E 009°58'0 0.0
2017-Aug-21 16:30N 53°33' E 009°58'0 0.0
2017-Aug-21 16:01N 53°33' E 009°58'0 0.0
2017-Aug-21 15:30N 53°33' E 009°58'0 0.0
2017-Aug-21 15:00N 53°33' E 009°58'0 0.0
2017-Aug-21 14:30N 53°33' E 009°58'0 0.0
2017-Aug-21 14:00N 53°33' E 009°58'0 0.0
2017-Aug-21 13:30N 53°33' E 009°58'0 0.0
2017-Aug-21 13:00N 53°33' E 009°58'0 0.0
2017-Aug-21 12:30N 53°33' E 009°58'0 0.0
2017-Aug-21 12:00N 53°33' E 009°58'0 0.0
2017-Aug-21 11:30N 53°33' E 009°58'0 0.0
2017-Aug-21 11:00N 53°33' E 009°58'0 0.0
2017-Aug-21 10:30N 53°33' E 009°58'0 0.0
2017-Aug-21 10:00N 53°33' E 009°58'0 0.0
2017-Aug-21 09:30N 53°33' E 009°58'0 0.0
2017-Aug-21 09:00N 53°33' E 009°58'0 0.0
2017-Aug-21 08:30N 53°33' E 009°58'0 0.0
2017-Aug-21 08:00N 53°33' E 009°58'0 0.0
2017-Aug-21 07:30N 53°33' E 009°58'0 0.0
2017-Aug-21 07:00N 53°33' E 009°58'0 0.0
2017-Aug-21 06:30N 53°33' E 009°58'0 0.0
2017-Aug-21 06:00N 53°33' E 009°58'0 0.0
2017-Aug-21 05:30N 53°33' E 009°58'0 0.0
2017-Aug-21 05:00N 53°33' E 009°58'0 0.0
2017-Aug-21 04:30N 53°33' E 009°58'0 0.0
2017-Aug-21 04:00N 53°33' E 009°58'0 0.0
2017-Aug-21 03:30N 53°33' E 009°58'0 0.0
2017-Aug-21 03:00N 53°33' E 009°58'0 0.0
2017-Aug-21 02:30N 53°33' E 009°58'0 0.0
2017-Aug-21 02:00N 53°33' E 009°58'0 0.0
2017-Aug-21 01:30N 53°33' E 009°58'0 0.0
2017-Aug-21 01:00N 53°33' E 009°58'0 0.0
2017-Aug-21 00:30N 53°33' E 009°58'0 0.0
2017-Aug-21 00:00N 53°33' E 009°58'0 0.0
2017-Aug-20 23:30N 53°33' E 009°58'0 0.0
2017-Aug-20 23:00N 53°33' E 009°58'0 0.0
2017-Aug-20 22:30N 53°33' E 009°58'0 0.0
2017-Aug-20 22:00N 53°33' E 009°58'0 0.0
2017-Aug-20 21:30N 53°33' E 009°58'0 0.0
2017-Aug-20 21:00N 53°33' E 009°58'0 0.0
2017-Aug-20 20:30N 53°33' E 009°58'0 0.0
2017-Aug-20 20:01N 53°33' E 009°58'0 0.0
2017-Aug-20 19:30N 53°33' E 009°58'0 0.0
2017-Aug-20 19:00N 53°33' E 009°58'0 0.0
2017-Aug-20 18:30N 53°33' E 009°58'0 0.0
2017-Aug-20 18:00N 53°33' E 009°58'0 0.0
2017-Aug-20 17:30N 53°33' E 009°58'1 1.7
2017-Aug-20 17:00N 53°32' E 009°56'2 4.8
2017-Aug-20 16:30N 53°33' E 009°52'4 8.9
2017-Aug-20 16:00N 53°34' E 009°45'4 8.4
2017-Aug-20 15:30N 53°34' E 009°38'4 8.6
2017-Aug-20 15:00N 53°37' E 009°33'2 4.7
2017-Aug-20 14:30N 53°39' E 009°31'0 1.0
2017-Aug-20 14:00N 53°40' E 009°31'1 1.8
2017-Aug-20 13:30N 53°41' E 009°30'1 2.7
2017-Aug-20 13:00N 53°39' E 009°31'0 0.0
2017-Aug-20 12:30N 53°39' E 009°31'3 6.9
2017-Aug-20 12:00N 53°37' E 009°34'4 7.9
2017-Aug-20 11:30N 53°34' E 009°40'4 8.6
2017-Aug-20 11:00N 53°34' E 009°47'4 8.3
2017-Aug-20 10:30N 53°33' E 009°53'3 5.2
2017-Aug-20 10:01N 53°33' E 009°58'0 0.0
2017-Aug-20 09:30N 53°33' E 009°58'0 0.0
2017-Aug-20 09:01N 53°33' E 009°58'0 0.0
2017-Aug-20 08:30N 53°33' E 009°58'0 0.0
2017-Aug-20 08:00N 53°33' E 009°58'0 0.0
2017-Aug-20 07:30N 53°33' E 009°58'0 0.0
2017-Aug-20 07:00N 53°33' E 009°58'0 0.0
2017-Aug-20 06:30N 53°33' E 009°58'0 0.0
2017-Aug-20 06:01N 53°33' E 009°58'0 0.0
2017-Aug-20 05:30N 53°33' E 009°58'0 0.0
2017-Aug-20 05:01N 53°33' E 009°58'0 0.0
2017-Aug-20 04:30N 53°33' E 009°58'0 0.0
2017-Aug-20 04:00N 53°33' E 009°58'0 0.0
2017-Aug-20 03:30N 53°33' E 009°58'0 0.0
2017-Aug-20 03:00N 53°33' E 009°58'0 0.0
2017-Aug-20 02:30N 53°33' E 009°58'0 0.0
2017-Aug-20 02:00N 53°33' E 009°58'0 0.0
2017-Aug-20 01:30N 53°33' E 009°58'0 0.0
2017-Aug-20 01:00N 53°33' E 009°58'0 0.0
2017-Aug-20 00:30N 53°33' E 009°58'0 0.0
2017-Aug-20 00:00N 53°33' E 009°58'0 0.0
2017-Aug-19 23:30N 53°33' E 009°58'0 0.0
2017-Aug-19 23:00N 53°33' E 009°58'0 0.0
2017-Aug-19 22:30N 53°33' E 009°58'0 0.0
2017-Aug-19 22:00N 53°33' E 009°58'0 0.0
2017-Aug-19 21:30N 53°33' E 009°58'0 0.0
2017-Aug-19 21:00N 53°33' E 009°58'0 0.0
2017-Aug-19 20:31N 53°33' E 009°58'0 0.0
2017-Aug-19 20:00N 53°33' E 009°58'0 0.0
2017-Aug-19 19:30N 53°33' E 009°58'0 0.0
2017-Aug-19 19:00N 53°33' E 009°58'0 0.0
2017-Aug-19 18:30N 53°33' E 009°58'0 0.0
2017-Aug-19 18:00N 53°33' E 009°58'0 0.0
2017-Aug-19 17:30N 53°33' E 009°58'0 0.0
2017-Aug-19 17:00N 53°33' E 009°58'0 0.0
2017-Aug-19 16:30N 53°33' E 009°58'0 0.0
2017-Aug-19 16:00N 53°33' E 009°58'0 0.0
2017-Aug-19 15:30N 53°33' E 009°58'2 3.1
2017-Aug-19 15:00N 53°33' E 009°55'0 0.2
2017-Aug-19 14:00N 53°32' E 009°55'2 3.1
2017-Aug-19 13:30N 53°33' E 009°52'0 0.8
2017-Aug-19 13:00N 53°33' E 009°52'3 5.9
2017-Aug-19 12:30N 53°33' E 009°57'1 1.4
2017-Aug-19 12:00N 53°33' E 009°58'0 0.0
2017-Aug-19 11:30N 53°33' E 009°58'0 0.0
2017-Aug-19 11:00N 53°33' E 009°58'0 0.0
2017-Aug-19 10:30N 53°33' E 009°58'0 0.0
2017-Aug-19 10:00N 53°33' E 009°58'0 0.0
2017-Aug-19 09:30N 53°33' E 009°58'0 0.0
2017-Aug-19 09:00N 53°33' E 009°58'0 0.0
2017-Aug-19 08:30N 53°33' E 009°58'0 0.0
2017-Aug-19 08:01N 53°33' E 009°58'0 0.0
2017-Aug-19 07:30N 53°33' E 009°58'0 0.0
2017-Aug-19 07:00N 53°33' E 009°58'0 0.0
2017-Aug-19 06:30N 53°33' E 009°58'0 0.0
2017-Aug-19 06:00N 53°33' E 009°58'0 0.0
2017-Aug-19 05:31N 53°33' E 009°58'0 0.0
2017-Aug-19 05:00N 53°33' E 009°58'0 0.0
2017-Aug-19 04:30N 53°33' E 009°58'0 0.0
2017-Aug-19 04:00N 53°33' E 009°58'0 0.0
2017-Aug-19 03:30N 53°33' E 009°58'0 0.0
2017-Aug-19 03:00N 53°33' E 009°58'0 0.0
2017-Aug-19 02:30N 53°33' E 009°58'0 0.0
2017-Aug-19 02:00N 53°33' E 009°58'2 3.5
2017-Aug-19 01:30N 53°32' E 009°55'0 0.0
2017-Aug-19 01:00N 53°32' E 009°55'1 1.2
2017-Aug-19 00:30N 53°32' E 009°55'1 2.4
2017-Aug-19 00:00N 53°33' E 009°53'1 2.8
2017-Aug-18 23:30N 53°33' E 009°55'2 3.2
2017-Aug-18 23:00N 53°33' E 009°58'0 0.0
2017-Aug-18 22:30N 53°33' E 009°58'0 0.0
2017-Aug-18 22:00N 53°33' E 009°58'0 0.0
2017-Aug-18 21:30N 53°33' E 009°58'0 0.0
2017-Aug-18 21:00N 53°33' E 009°58'0 0.0
2017-Aug-18 20:31N 53°33' E 009°58'0 0.0
2017-Aug-18 20:00N 53°33' E 009°58'0 0.0
2017-Aug-18 19:30N 53°33' E 009°58'0 0.0
2017-Aug-18 19:00N 53°33' E 009°58'0 0.0
2017-Aug-18 18:31N 53°33' E 009°58'0 0.0
2017-Aug-18 18:00N 53°33' E 009°58'0 0.0
2017-Aug-18 17:30N 53°33' E 009°58'0 0.0
2017-Aug-18 17:00N 53°33' E 009°58'0 0.0
2017-Aug-18 16:30N 53°33' E 009°58'0 0.0
2017-Aug-18 16:00N 53°33' E 009°58'0 0.0
2017-Aug-18 15:30N 53°33' E 009°58'0 0.0
2017-Aug-18 15:00N 53°33' E 009°58'0 0.0
2017-Aug-18 14:00N 53°33' E 009°58'0 0.0
2017-Aug-18 13:30N 53°33' E 009°58'1 1.5
2017-Aug-18 13:00N 53°32' E 009°59'1 1.5
2017-Aug-18 12:30N 53°33' E 009°58'2 3.5
2017-Aug-18 12:00N 53°31' E 009°56'0 0.2
2017-Aug-18 11:30N 53°31' E 009°56'0 0.1
2017-Aug-18 11:00N 53°31' E 009°56'0 0.7
2017-Aug-18 10:30N 53°31' E 009°56'0 0.0
2017-Aug-18 10:00N 53°31' E 009°56'2 3.1
2017-Aug-18 09:30N 53°32' E 009°56'0 0.3
2017-Aug-18 09:00N 53°33' E 009°55'0 0.0
2017-Aug-18 08:30N 53°33' E 009°55'0 0.0
2017-Aug-18 08:00N 53°33' E 009°55'0 0.0
2017-Aug-18 07:30N 53°33' E 009°55'0 0.0
2017-Aug-18 07:00N 53°33' E 009°55'0 0.0
2017-Aug-18 06:31N 53°33' E 009°55'0 0.0
2017-Aug-18 06:00N 53°33' E 009°55'0 0.0
2017-Aug-18 05:30N 53°33' E 009°55'0 0.0
2017-Aug-18 05:00N 53°33' E 009°55'0 0.0
2017-Aug-18 04:30N 53°33' E 009°55'0 0.0
2017-Aug-18 04:01N 53°33' E 009°55'0 0.0
2017-Aug-18 03:30N 53°33' E 009°55'0 0.0
2017-Aug-18 03:00N 53°33' E 009°55'0 0.0
2017-Aug-18 02:30N 53°33' E 009°55'0 0.0
2017-Aug-18 02:00N 53°33' E 009°55'0 0.0
2017-Aug-18 01:30N 53°33' E 009°55'0 0.0
2017-Aug-18 01:00N 53°33' E 009°55'0 0.0
2017-Aug-18 00:30N 53°33' E 009°55'0 0.0
2017-Aug-18 00:00N 53°33' E 009°55'0 0.0
2017-Aug-17 23:31N 53°33' E 009°55'0 0.0
2017-Aug-17 23:00N 53°33' E 009°55'0 0.0
2017-Aug-17 22:30N 53°33' E 009°55'2 4.9
2017-Aug-17 22:00N 53°32' E 009°59'0 0.1
2017-Aug-17 21:30N 53°32' E 009°59'2 3.6
2017-Aug-17 21:00N 53°32' E 009°56'2 4.3
2017-Aug-17 20:30N 53°30' E 009°57'1 1.3
2017-Aug-17 20:00N 53°31' E 009°57'2 4.5
2017-Aug-17 19:30N 53°33' E 009°55'0 0.6
2017-Aug-17 19:00N 53°33' E 009°55'0 0.0
2017-Aug-17 18:30N 53°33' E 009°55'0 0.0
2017-Aug-17 18:00N 53°33' E 009°55'0 0.0
2017-Aug-17 17:30N 53°33' E 009°55'0 0.0
2017-Aug-17 17:00N 53°33' E 009°55'0 0.0
2017-Aug-17 16:30N 53°33' E 009°55'3 5.1
2017-Aug-17 16:00N 53°30' E 009°57'1 2.0
2017-Aug-17 15:30N 53°29' E 009°57'0 0.6
2017-Aug-17 15:00N 53°30' E 009°57'3 6.4
2017-Aug-17 14:30N 53°33' E 009°55'0 0.1
2017-Aug-17 14:00N 53°33' E 009°55'0 0.0
2017-Aug-17 13:30N 53°33' E 009°55'0 0.0
2017-Aug-17 13:00N 53°33' E 009°55'0 0.0
2017-Aug-17 12:30N 53°33' E 009°55'0 0.0
2017-Aug-17 12:00N 53°33' E 009°55'0 0.0
2017-Aug-17 11:30N 53°33' E 009°55'0 0.0
2017-Aug-17 11:00N 53°33' E 009°55'0 0.0
2017-Aug-17 10:30N 53°33' E 009°55'1 2.8
2017-Aug-17 10:00N 53°32' E 009°58'1 1.0
2017-Aug-17 09:30N 53°33' E 009°59'0 0.9
2017-Aug-17 09:00N 53°32' E 009°59'1 2.2
2017-Aug-17 08:30N 53°33' E 009°57'1 1.8
2017-Aug-17 08:00N 53°33' E 009°55'0 0.0
2017-Aug-17 07:30N 53°33' E 009°55'0 0.0
2017-Aug-17 07:00N 53°33' E 009°55'0 0.0
2017-Aug-17 06:30N 53°33' E 009°55'0 0.0
2017-Aug-17 06:00N 53°33' E 009°55'0 0.0
2017-Aug-17 05:30N 53°33' E 009°55'2 3.6
2017-Aug-17 05:00N 53°33' E 009°58'1 1.3
2017-Aug-17 04:30N 53°32' E 009°59'3 5.3
2017-Aug-17 04:00N 53°32' E 009°55'0 0.7
2017-Aug-17 03:30N 53°32' E 009°54'1 1.3
2017-Aug-17 03:00N 53°33' E 009°55'0 0.0
2017-Aug-17 02:30N 53°33' E 009°55'0 0.0
2017-Aug-17 02:00N 53°33' E 009°55'0 0.0
2017-Aug-17 01:30N 53°33' E 009°55'0 0.0
2017-Aug-17 01:00N 53°33' E 009°55'0 0.0
2017-Aug-17 00:30N 53°33' E 009°55'0 0.0
2017-Aug-17 00:00N 53°33' E 009°55'0 0.0
2017-Aug-16 23:30N 53°33' E 009°55'0 0.0
2017-Aug-16 23:00N 53°33' E 009°55'0 0.0
2017-Aug-16 22:30N 53°33' E 009°55'0 0.0
2017-Aug-16 22:00N 53°33' E 009°55'0 0.0
2017-Aug-16 21:30N 53°33' E 009°55'0 0.0
2017-Aug-16 21:00N 53°33' E 009°55'0 0.0
2017-Aug-16 20:30N 53°33' E 009°55'0 0.0
2017-Aug-16 20:00N 53°33' E 009°55'0 0.0
2017-Aug-16 19:30N 53°33' E 009°55'0 0.0
2017-Aug-16 19:00N 53°33' E 009°55'0 0.0
2017-Aug-16 18:30N 53°33' E 009°55'0 0.0
2017-Aug-16 18:00N 53°33' E 009°55'0 0.0
2017-Aug-16 17:30N 53°33' E 009°55'0 0.0
2017-Aug-16 17:00N 53°33' E 009°55'0 0.0
2017-Aug-16 16:30N 53°33' E 009°55'0 0.0
2017-Aug-16 16:00N 53°33' E 009°55'0 0.0
2017-Aug-16 15:31N 53°33' E 009°55'0 0.0
2017-Aug-16 15:01N 53°33' E 009°55'0 0.0
2017-Aug-16 14:31N 53°33' E 009°55'0 0.0
2017-Aug-16 14:00N 53°33' E 009°55'0 0.0
2017-Aug-16 13:30N 53°33' E 009°55'0 0.0
2017-Aug-16 13:01N 53°33' E 009°55'0 0.0
2017-Aug-16 12:30N 53°33' E 009°55'1 1.3
2017-Aug-16 12:00N 53°32' E 009°54'0 0.0
2017-Aug-16 11:30N 53°32' E 009°54'1 1.8
2017-Aug-16 11:00N 53°32' E 009°55'1 2.2
2017-Aug-16 10:30N 53°32' E 009°54'3 5.1
2017-Aug-16 10:00N 53°33' E 009°50'4 7.9
2017-Aug-16 09:30N 53°34' E 009°43'0 0.0
2017-Aug-16 09:00N 53°34' E 009°43'3 6.3
2017-Aug-16 08:30N 53°33' E 009°49'4 8.2
2017-Aug-16 08:00N 53°33' E 009°55'0 0.0
2017-Aug-16 07:30N 53°33' E 009°55'0 0.0
2017-Aug-16 07:00N 53°33' E 009°55'0 0.0
2017-Aug-16 06:31N 53°33' E 009°55'0 0.0
2017-Aug-16 06:00N 53°33' E 009°55'0 0.0
2017-Aug-16 05:30N 53°33' E 009°55'0 0.0
2017-Aug-16 05:00N 53°33' E 009°55'0 0.0
2017-Aug-16 04:30N 53°33' E 009°55'0 0.0
2017-Aug-16 04:00N 53°33' E 009°55'0 0.0
2017-Aug-16 03:30N 53°33' E 009°55'0 0.0
2017-Aug-16 03:00N 53°33' E 009°55'0 0.0
2017-Aug-16 02:30N 53°33' E 009°55'0 0.0
2017-Aug-16 02:00N 53°33' E 009°55'0 0.0
2017-Aug-16 01:30N 53°33' E 009°55'0 0.0
2017-Aug-16 01:00N 53°33' E 009°55'0 0.0
2017-Aug-16 00:30N 53°33' E 009°55'0 0.0
2017-Aug-16 00:00N 53°33' E 009°55'0 0.0
2017-Aug-15 23:30N 53°33' E 009°55'0 0.0
2017-Aug-15 23:00N 53°33' E 009°55'0 0.0
2017-Aug-15 22:30N 53°33' E 009°55'0 0.0
2017-Aug-15 22:00N 53°33' E 009°55'2 3.6
2017-Aug-15 21:30N 53°31' E 009°56'0 0.0
2017-Aug-15 21:00N 53°31' E 009°56'0 0.5
2017-Aug-15 20:30N 53°31' E 009°56'0 0.3
2017-Aug-15 20:00N 53°31' E 009°56'2 3.3
2017-Aug-15 19:30N 53°32' E 009°54'1 1.3
2017-Aug-15 19:00N 53°33' E 009°55'0 0.0
2017-Aug-15 18:30N 53°33' E 009°55'0 0.0
2017-Aug-15 18:00N 53°33' E 009°55'0 0.0
2017-Aug-15 17:30N 53°33' E 009°55'0 0.0
2017-Aug-15 17:00N 53°33' E 009°55'0 0.0
2017-Aug-15 16:30N 53°33' E 009°55'0 0.0
2017-Aug-15 16:00N 53°33' E 009°55'0 0.0
2017-Aug-15 15:30N 53°33' E 009°55'0 0.0
2017-Aug-15 15:00N 53°33' E 009°55'0 0.0
2017-Aug-15 14:30N 53°33' E 009°55'2 4.4
2017-Aug-15 14:00N 53°30' E 009°56'0 0.4
2017-Aug-15 13:30N 53°30' E 009°56'0 0.4
2017-Aug-15 13:00N 53°30' E 009°56'1 1.9
2017-Aug-15 12:30N 53°31' E 009°56'3 6.5
2017-Aug-15 12:01N 53°33' E 009°52'1 1.9
2017-Aug-15 11:30N 53°33' E 009°50'1 1.2
2017-Aug-15 11:00N 53°33' E 009°49'2 4.1
2017-Aug-15 10:30N 53°34' E 009°46'2 4.2
2017-Aug-15 10:00N 53°34' E 009°42'3 5.2
2017-Aug-15 09:30N 53°34' E 009°38'3 6.3
2017-Aug-15 09:00N 53°37' E 009°34'3 5.9
2017-Aug-15 08:30N 53°39' E 009°31'1 1.0
2017-Aug-15 08:00N 53°39' E 009°31'1 1.8
2017-Aug-15 07:31N 53°40' E 009°30'1 1.9
2017-Aug-15 07:00N 53°39' E 009°31'0 0.0
2017-Aug-15 06:30N 53°39' E 009°31'1 1.7
2017-Aug-15 06:00N 53°39' E 009°31'4 8.3
2017-Aug-15 05:30N 53°36' E 009°36'5 9.3
2017-Aug-15 05:00N 53°34' E 009°43'4 7.6
2017-Aug-15 04:31N 53°33' E 009°50'3 6.8
2017-Aug-15 04:00N 53°33' E 009°55'0 0.1
2017-Aug-15 03:30N 53°33' E 009°55'0 0.0
2017-Aug-15 03:00N 53°33' E 009°55'0 0.0
2017-Aug-15 02:30N 53°33' E 009°55'0 0.0
2017-Aug-15 02:00N 53°33' E 009°55'0 0.0
2017-Aug-15 01:30N 53°33' E 009°55'0 0.0
2017-Aug-15 01:00N 53°33' E 009°55'0 0.0
2017-Aug-15 00:31N 53°33' E 009°55'0 0.0
2017-Aug-15 00:00N 53°33' E 009°55'0 0.0
2017-Aug-14 23:30N 53°33' E 009°55'0 0.0
2017-Aug-14 23:00N 53°33' E 009°55'0 0.0
2017-Aug-14 22:30N 53°33' E 009°55'0 0.0
2017-Aug-14 22:00N 53°33' E 009°55'0 0.0
2017-Aug-14 21:30N 53°33' E 009°55'0 0.0
2017-Aug-14 21:00N 53°33' E 009°55'0 0.0
2017-Aug-14 20:30N 53°33' E 009°55'0 0.0
2017-Aug-14 20:00N 53°33' E 009°55'0 0.0
2017-Aug-14 19:30N 53°33' E 009°55'0 0.0
2017-Aug-14 19:00N 53°33' E 009°55'0 0.0
2017-Aug-14 18:30N 53°33' E 009°55'0 0.0
2017-Aug-14 18:00N 53°33' E 009°55'0 0.0
2017-Aug-14 17:30N 53°33' E 009°55'0 0.0
2017-Aug-14 17:01N 53°33' E 009°55'0 0.0
2017-Aug-14 16:30N 53°33' E 009°55'0 0.5
2017-Aug-14 16:00N 53°32' E 009°56'3 5.3
2017-Aug-14 15:30N 53°30' E 009°58'1 2.5
2017-Aug-14 15:00N 53°29' E 009°59'1 2.8
2017-Aug-14 14:30N 53°30' E 009°58'3 5.4
2017-Aug-14 14:00N 53°33' E 009°55'0 0.0
2017-Aug-14 13:30N 53°33' E 009°55'0 0.0
2017-Aug-14 13:00N 53°33' E 009°55'0 0.0
2017-Aug-14 12:30N 53°33' E 009°55'0 0.0
2017-Aug-14 12:00N 53°33' E 009°55'0 0.0
2017-Aug-14 11:30N 53°33' E 009°55'0 0.0
2017-Aug-14 11:00N 53°33' E 009°55'0 0.0
2017-Aug-14 10:30N 53°33' E 009°55'0 0.0
2017-Aug-14 10:00N 53°33' E 009°55'0 0.0
2017-Aug-14 09:30N 53°33' E 009°55'0 0.0
2017-Aug-14 09:00N 53°33' E 009°55'0 0.0
2017-Aug-14 08:30N 53°33' E 009°55'0 0.0
2017-Aug-14 08:00N 53°33' E 009°55'0 0.0
2017-Aug-14 07:31N 53°33' E 009°55'0 0.0
2017-Aug-14 07:00N 53°33' E 009°55'0 0.0
2017-Aug-14 06:31N 53°33' E 009°55'0 0.0
2017-Aug-14 06:00N 53°33' E 009°55'0 0.0
2017-Aug-14 05:30N 53°33' E 009°55'0 0.0
2017-Aug-14 05:00N 53°33' E 009°55'0 0.0
2017-Aug-14 04:30N 53°33' E 009°55'0 0.0
2017-Aug-14 04:00N 53°33' E 009°55'0 0.0
2017-Aug-14 03:30N 53°33' E 009°55'0 0.0
2017-Aug-14 03:00N 53°33' E 009°55'0 0.7
2017-Aug-14 02:30N 53°32' E 009°55'1 1.2
2017-Aug-14 02:00N 53°32' E 009°54'2 3.8
2017-Aug-14 01:30N 53°33' E 009°51'3 5.6
2017-Aug-14 01:00N 53°33' E 009°55'  
Track history (hours):
 
Tides and Currents Weather Stations Pressure Air Temp Water Temp Dewpoint Dewpoint Depression Visibility Wind Speed Wind Dir Waves Ship Positions

Maersk Douglas

Last reported at 2017-Aug-24 01:00 UTC. Time now 2017-Aug-24 01:00 UTC.
Position N 53°33' E 009°58'.

Length 294.1 m; beam 32.2 m; draft 13.7 m.

Type: Tug. MMSI: 211710650.

Date/timePositionNaut miles runAvg speedWind from/ knotsBaromVisibWave heightAir tempDewpointWater temp
2017-Aug-24 01:00N 53°33' E 009°58'0 0.0
2017-Aug-24 00:30N 53°33' E 009°58'0 0.0
2017-Aug-24 00:00N 53°33' E 009°58'0 0.0
2017-Aug-23 23:30N 53°33' E 009°58'0 0.0
2017-Aug-23 23:01N 53°33' E 009°58'0 0.0
2017-Aug-23 22:30N 53°33' E 009°58'0 0.0
2017-Aug-23 22:00N 53°33' E 009°58'0 0.0
2017-Aug-23 21:30N 53°33' E 009°58'0 0.0
2017-Aug-23 21:00N 53°33' E 009°58'0 0.0
2017-Aug-23 20:30N 53°33' E 009°58'0 0.0
2017-Aug-23 20:00N 53°33' E 009°58'0 0.0
2017-Aug-23 19:30N 53°33' E 009°58'0 0.0
2017-Aug-23 19:00N 53°33' E 009°58'1 2.3
2017-Aug-23 18:30N 53°32' E 009°56'1 1.7
2017-Aug-23 18:00N 53°32' E 009°55'0 0.7
2017-Aug-23 17:30N 53°32' E 009°55'1 3.0
2017-Aug-23 17:00N 53°33' E 009°53'3 6.9
2017-Aug-23 16:30N 53°33' E 009°47'2 4.6
2017-Aug-23 16:00N 53°34' E 009°43'3 5.4
2017-Aug-23 15:30N 53°33' E 009°48'4 8.5
2017-Aug-23 15:00N 53°33' E 009°55'0 0.5
2017-Aug-23 14:30N 53°33' E 009°55'0 0.0
2017-Aug-23 13:30N 53°33' E 009°55'0 0.0
2017-Aug-23 13:00N 53°33' E 009°55'0 0.0
2017-Aug-23 12:30N 53°33' E 009°55'0 0.0
2017-Aug-23 12:00N 53°33' E 009°55'0 0.0
2017-Aug-23 11:30N 53°33' E 009°55'0 0.0
2017-Aug-23 11:00N 53°33' E 009°55'0 0.0
2017-Aug-23 10:30N 53°33' E 009°55'0 0.0
2017-Aug-23 10:00N 53°33' E 009°55'0 0.0
2017-Aug-23 09:30N 53°33' E 009°55'0 0.0
2017-Aug-23 09:00N 53°33' E 009°55'0 0.0
2017-Aug-23 08:30N 53°33' E 009°55'0 0.0
2017-Aug-23 08:00N 53°33' E 009°55'0 0.0
2017-Aug-23 07:30N 53°33' E 009°55'0 0.0
2017-Aug-23 07:00N 53°33' E 009°55'0 0.0
2017-Aug-23 06:30N 53°33' E 009°55'0 0.0
2017-Aug-23 06:00N 53°33' E 009°55'0 0.0
2017-Aug-23 05:30N 53°33' E 009°55'0 0.0
2017-Aug-23 05:00N 53°33' E 009°55'0 0.0
2017-Aug-23 04:30N 53°33' E 009°55'0 0.1
2017-Aug-23 04:00N 53°33' E 009°55'2 4.3
2017-Aug-23 03:30N 53°30' E 009°56'2 4.8
2017-Aug-23 03:00N 53°33' E 009°58'0 0.0
2017-Aug-23 02:30N 53°33' E 009°58'0 0.0
2017-Aug-23 02:00N 53°33' E 009°58'0 0.0
2017-Aug-23 01:30N 53°33' E 009°58'0 0.0
2017-Aug-23 01:00N 53°33' E 009°58'0 0.0
2017-Aug-23 00:30N 53°33' E 009°58'0 0.0
2017-Aug-23 00:01N 53°33' E 009°58'0 0.0
2017-Aug-22 23:30N 53°33' E 009°58'0 0.0
2017-Aug-22 23:00N 53°33' E 009°58'0 0.0
2017-Aug-22 22:30N 53°33' E 009°58'0 0.0
2017-Aug-22 22:00N 53°33' E 009°58'0 0.0
2017-Aug-22 21:30N 53°33' E 009°58'0 0.0
2017-Aug-22 21:00N 53°33' E 009°58'0 0.0
2017-Aug-22 20:30N 53°33' E 009°58'0 0.0
2017-Aug-22 20:00N 53°33' E 009°58'0 0.0
2017-Aug-22 19:30N 53°33' E 009°58'0 0.0
2017-Aug-22 19:00N 53°33' E 009°58'0 0.0
2017-Aug-22 18:30N 53°33' E 009°58'0 0.0
2017-Aug-22 18:00N 53°33' E 009°58'0 0.0
2017-Aug-22 17:30N 53°33' E 009°58'0 0.0
2017-Aug-22 17:00N 53°33' E 009°58'0 0.0
2017-Aug-22 16:30N 53°33' E 009°58'3 6.1
2017-Aug-22 16:00N 53°30' E 009°57'0 0.8
2017-Aug-22 15:30N 53°29' E 009°57'1 1.1
2017-Aug-22 15:00N 53°30' E 009°57'1 2.6
2017-Aug-22 14:30N 53°31' E 009°56'2 3.4
2017-Aug-22 14:00N 53°33' E 009°57'1 1.0
2017-Aug-22 13:30N 53°33' E 009°58'0 0.0
2017-Aug-22 13:00N 53°33' E 009°58'0 0.0
2017-Aug-22 12:30N 53°33' E 009°58'0 0.0
2017-Aug-22 12:00N 53°33' E 009°58'0 0.0
2017-Aug-22 11:31N 53°33' E 009°58'0 0.0
2017-Aug-22 11:00N 53°33' E 009°58'0 0.0
2017-Aug-22 10:30N 53°33' E 009°58'0 0.0
2017-Aug-22 10:00N 53°33' E 009°58'0 0.0
2017-Aug-22 09:30N 53°33' E 009°58'0 0.0
2017-Aug-22 09:00N 53°33' E 009°58'0 0.0
2017-Aug-22 08:30N 53°33' E 009°58'0 0.0
2017-Aug-22 08:00N 53°33' E 009°58'0 0.0
2017-Aug-22 07:30N 53°33' E 009°58'0 0.0
2017-Aug-22 07:00N 53°33' E 009°58'0 0.0
2017-Aug-22 06:30N 53°33' E 009°58'0 0.0
2017-Aug-22 06:00N 53°33' E 009°58'0 0.0
2017-Aug-22 05:30N 53°33' E 009°58'0 0.0
2017-Aug-22 05:00N 53°33' E 009°58'2 3.4
2017-Aug-22 04:30N 53°32' E 009°55'2 3.2
2017-Aug-22 04:00N 53°33' E 009°52'0 0.8
2017-Aug-22 03:30N 53°33' E 009°52'3 6.5
2017-Aug-22 03:00N 53°31' E 009°56'0 0.8
2017-Aug-22 02:30N 53°31' E 009°56'0 0.5
2017-Aug-22 02:00N 53°31' E 009°56'2 3.7
2017-Aug-22 01:30N 53°33' E 009°58'0 0.0
2017-Aug-22 01:00N 53°33' E 009°58'0 0.0
2017-Aug-22 00:30N 53°33' E 009°58'0 0.0
2017-Aug-22 00:00N 53°33' E 009°58'1 2.0
2017-Aug-21 23:30N 53°32' E 009°56'4 7.5
2017-Aug-21 23:00N 53°33' E 009°50'0 0.0
2017-Aug-21 22:30N 53°33' E 009°50'0 0.4
2017-Aug-21 22:00N 53°33' E 009°50'4 7.4
2017-Aug-21 21:30N 53°32' E 009°56'2 3.0
2017-Aug-21 21:00N 53°30' E 009°56'0 0.1
2017-Aug-21 20:30N 53°30' E 009°56'2 3.6
2017-Aug-21 20:00N 53°32' E 009°56'1 2.3
2017-Aug-21 19:30N 53°33' E 009°58'0 0.0
2017-Aug-21 19:00N 53°33' E 009°58'0 0.0
2017-Aug-21 18:30N 53°33' E 009°58'0 0.0
2017-Aug-21 18:00N 53°33' E 009°58'0 0.0
2017-Aug-21 17:30N 53°33' E 009°58'0 0.0
2017-Aug-21 17:00N 53°33' E 009°58'0 0.0
2017-Aug-21 16:30N 53°33' E 009°58'0 0.0
2017-Aug-21 16:01N 53°33' E 009°58'0 0.0
2017-Aug-21 15:30N 53°33' E 009°58'0 0.0
2017-Aug-21 15:00N 53°33' E 009°58'0 0.0
2017-Aug-21 14:30N 53°33' E 009°58'0 0.0
2017-Aug-21 14:00N 53°33' E 009°58'0 0.0
2017-Aug-21 13:30N 53°33' E 009°58'0 0.0
2017-Aug-21 13:00N 53°33' E 009°58'0 0.0
2017-Aug-21 12:30N 53°33' E 009°58'0 0.0
2017-Aug-21 12:00N 53°33' E 009°58'0 0.0
2017-Aug-21 11:30N 53°33' E 009°58'0 0.0
2017-Aug-21 11:00N 53°33' E 009°58'0 0.0
2017-Aug-21 10:30N 53°33' E 009°58'0 0.0
2017-Aug-21 10:00N 53°33' E 009°58'0 0.0
2017-Aug-21 09:30N 53°33' E 009°58'0 0.0
2017-Aug-21 09:00N 53°33' E 009°58'0 0.0
2017-Aug-21 08:30N 53°33' E 009°58'0 0.0
2017-Aug-21 08:00N 53°33' E 009°58'0 0.0
2017-Aug-21 07:30N 53°33' E 009°58'0 0.0
2017-Aug-21 07:00N 53°33' E 009°58'0 0.0
2017-Aug-21 06:30N 53°33' E 009°58'0 0.0
2017-Aug-21 06:00N 53°33' E 009°58'0 0.0
2017-Aug-21 05:30N 53°33' E 009°58'0 0.0
2017-Aug-21 05:00N 53°33' E 009°58'0 0.0
2017-Aug-21 04:30N 53°33' E 009°58'0 0.0
2017-Aug-21 04:00N 53°33' E 009°58'0 0.0
2017-Aug-21 03:30N 53°33' E 009°58'0 0.0
2017-Aug-21 03:00N 53°33' E 009°58'0 0.0
2017-Aug-21 02:30N 53°33' E 009°58'0 0.0
2017-Aug-21 02:00N 53°33' E 009°58'0 0.0
2017-Aug-21 01:30N 53°33' E 009°58'0 0.0
2017-Aug-21 01:00N 53°33' E 009°58'0 0.0
2017-Aug-21 00:30N 53°33' E 009°58'0 0.0
2017-Aug-21 00:00N 53°33' E 009°58'0 0.0
2017-Aug-20 23:30N 53°33' E 009°58'0 0.0
2017-Aug-20 23:00N 53°33' E 009°58'0 0.0
2017-Aug-20 22:30N 53°33' E 009°58'0 0.0
2017-Aug-20 22:00N 53°33' E 009°58'0 0.0
2017-Aug-20 21:30N 53°33' E 009°58'0 0.0
2017-Aug-20 21:00N 53°33' E 009°58'0 0.0
2017-Aug-20 20:30N 53°33' E 009°58'0 0.0
2017-Aug-20 20:01N 53°33' E 009°58'0 0.0
2017-Aug-20 19:30N 53°33' E 009°58'0 0.0
2017-Aug-20 19:00N 53°33' E 009°58'0 0.0
2017-Aug-20 18:30N 53°33' E 009°58'0 0.0
2017-Aug-20 18:00N 53°33' E 009°58'0 0.0
2017-Aug-20 17:30N 53°33' E 009°58'1 1.7
2017-Aug-20 17:00N 53°32' E 009°56'2 4.8
2017-Aug-20 16:30N 53°33' E 009°52'4 8.9
2017-Aug-20 16:00N 53°34' E 009°45'4 8.4
2017-Aug-20 15:30N 53°34' E 009°38'4 8.6
2017-Aug-20 15:00N 53°37' E 009°33'2 4.7
2017-Aug-20 14:30N 53°39' E 009°31'0 1.0
2017-Aug-20 14:00N 53°40' E 009°31'1 1.8
2017-Aug-20 13:30N 53°41' E 009°30'1 2.7
2017-Aug-20 13:00N 53°39' E 009°31'0 0.0
2017-Aug-20 12:30N 53°39' E 009°31'3 6.9
2017-Aug-20 12:00N 53°37' E 009°34'4 7.9
2017-Aug-20 11:30N 53°34' E 009°40'4 8.6
2017-Aug-20 11:00N 53°34' E 009°47'4 8.3
2017-Aug-20 10:30N 53°33' E 009°53'3 5.2
2017-Aug-20 10:01N 53°33' E 009°58'0 0.0
2017-Aug-20 09:30N 53°33' E 009°58'0 0.0
2017-Aug-20 09:01N 53°33' E 009°58'0 0.0
2017-Aug-20 08:30N 53°33' E 009°58'0 0.0
2017-Aug-20 08:00N 53°33' E 009°58'0 0.0
2017-Aug-20 07:30N 53°33' E 009°58'0 0.0
2017-Aug-20 07:00N 53°33' E 009°58'0 0.0
2017-Aug-20 06:30N 53°33' E 009°58'0 0.0
2017-Aug-20 06:01N 53°33' E 009°58'0 0.0
2017-Aug-20 05:30N 53°33' E 009°58'0 0.0
2017-Aug-20 05:01N 53°33' E 009°58'0 0.0
2017-Aug-20 04:30N 53°33' E 009°58'0 0.0
2017-Aug-20 04:00N 53°33' E 009°58'0 0.0
2017-Aug-20 03:30N 53°33' E 009°58'0 0.0
2017-Aug-20 03:00N 53°33' E 009°58'0 0.0
2017-Aug-20 02:30N 53°33' E 009°58'0 0.0
2017-Aug-20 02:00N 53°33' E 009°58'0 0.0
2017-Aug-20 01:30N 53°33' E 009°58'0 0.0
2017-Aug-20 01:00N 53°33' E 009°58'0 0.0
2017-Aug-20 00:30N 53°33' E 009°58'0 0.0
2017-Aug-20 00:00N 53°33' E 009°58'0 0.0
2017-Aug-19 23:30N 53°33' E 009°58'0 0.0
2017-Aug-19 23:00N 53°33' E 009°58'0 0.0
2017-Aug-19 22:30N 53°33' E 009°58'0 0.0
2017-Aug-19 22:00N 53°33' E 009°58'0 0.0
2017-Aug-19 21:30N 53°33' E 009°58'0 0.0
2017-Aug-19 21:00N 53°33' E 009°58'0 0.0
2017-Aug-19 20:31N 53°33' E 009°58'0 0.0
2017-Aug-19 20:00N 53°33' E 009°58'0 0.0
2017-Aug-19 19:30N 53°33' E 009°58'0 0.0
2017-Aug-19 19:00N 53°33' E 009°58'0 0.0
2017-Aug-19 18:30N 53°33' E 009°58'0 0.0
2017-Aug-19 18:00N 53°33' E 009°58'0 0.0
2017-Aug-19 17:30N 53°33' E 009°58'0 0.0
2017-Aug-19 17:00N 53°33' E 009°58'0 0.0
2017-Aug-19 16:30N 53°33' E 009°58'0 0.0
2017-Aug-19 16:00N 53°33' E 009°58'0 0.0
2017-Aug-19 15:30N 53°33' E 009°58'2 3.1
2017-Aug-19 15:00N 53°33' E 009°55'0 0.2
2017-Aug-19 14:00N 53°32' E 009°55'2 3.1
2017-Aug-19 13:30N 53°33' E 009°52'0 0.8
2017-Aug-19 13:00N 53°33' E 009°52'3 5.9
2017-Aug-19 12:30N 53°33' E 009°57'1 1.4
2017-Aug-19 12:00N 53°33' E 009°58'0 0.0
2017-Aug-19 11:30N 53°33' E 009°58'0 0.0
2017-Aug-19 11:00N 53°33' E 009°58'0 0.0
2017-Aug-19 10:30N 53°33' E 009°58'0 0.0
2017-Aug-19 10:00N 53°33' E 009°58'0 0.0
2017-Aug-19 09:30N 53°33' E 009°58'0 0.0
2017-Aug-19 09:00N 53°33' E 009°58'0 0.0
2017-Aug-19 08:30N 53°33' E 009°58'0 0.0
2017-Aug-19 08:01N 53°33' E 009°58'0 0.0
2017-Aug-19 07:30N 53°33' E 009°58'0 0.0
2017-Aug-19 07:00N 53°33' E 009°58'0 0.0
2017-Aug-19 06:30N 53°33' E 009°58'0 0.0
2017-Aug-19 06:00N 53°33' E 009°58'0 0.0
2017-Aug-19 05:31N 53°33' E 009°58'0 0.0
2017-Aug-19 05:00N 53°33' E 009°58'0 0.0
2017-Aug-19 04:30N 53°33' E 009°58'0 0.0
2017-Aug-19 04:00N 53°33' E 009°58'0 0.0
2017-Aug-19 03:30N 53°33' E 009°58'0 0.0
2017-Aug-19 03:00N 53°33' E 009°58'0 0.0
2017-Aug-19 02:30N 53°33' E 009°58'0 0.0
2017-Aug-19 02:00N 53°33' E 009°58'2 3.5
2017-Aug-19 01:30N 53°32' E 009°55'0 0.0
2017-Aug-19 01:00N 53°32' E 009°55'1 1.2
2017-Aug-19 00:30N 53°32' E 009°55'1 2.4
2017-Aug-19 00:00N 53°33' E 009°53'1 2.8
2017-Aug-18 23:30N 53°33' E 009°55'2 3.2
2017-Aug-18 23:00N 53°33' E 009°58'0 0.0
2017-Aug-18 22:30N 53°33' E 009°58'0 0.0
2017-Aug-18 22:00N 53°33' E 009°58'0 0.0
2017-Aug-18 21:30N 53°33' E 009°58'0 0.0
2017-Aug-18 21:00N 53°33' E 009°58'0 0.0
2017-Aug-18 20:31N 53°33' E 009°58'0 0.0
2017-Aug-18 20:00N 53°33' E 009°58'0 0.0
2017-Aug-18 19:30N 53°33' E 009°58'0 0.0
2017-Aug-18 19:00N 53°33' E 009°58'0 0.0
2017-Aug-18 18:31N 53°33' E 009°58'0 0.0
2017-Aug-18 18:00N 53°33' E 009°58'0 0.0
2017-Aug-18 17:30N 53°33' E 009°58'0 0.0
2017-Aug-18 17:00N 53°33' E 009°58'0 0.0
2017-Aug-18 16:30N 53°33' E 009°58'0 0.0
2017-Aug-18 16:00N 53°33' E 009°58'0 0.0
2017-Aug-18 15:30N 53°33' E 009°58'0 0.0
2017-Aug-18 15:00N 53°33' E 009°58'0 0.0
2017-Aug-18 14:00N 53°33' E 009°58'0 0.0
2017-Aug-18 13:30N 53°33' E 009°58'1 1.5
2017-Aug-18 13:00N 53°32' E 009°59'1 1.5
2017-Aug-18 12:30N 53°33' E 009°58'2 3.5
2017-Aug-18 12:00N 53°31' E 009°56'0 0.2
2017-Aug-18 11:30N 53°31' E 009°56'0 0.1
2017-Aug-18 11:00N 53°31' E 009°56'0 0.7
2017-Aug-18 10:30N 53°31' E 009°56'0 0.0
2017-Aug-18 10:00N 53°31' E 009°56'2 3.1
2017-Aug-18 09:30N 53°32' E 009°56'0 0.3
2017-Aug-18 09:00N 53°33' E 009°55'0 0.0
2017-Aug-18 08:30N 53°33' E 009°55'0 0.0
2017-Aug-18 08:00N 53°33' E 009°55'0 0.0
2017-Aug-18 07:30N 53°33' E 009°55'0 0.0
2017-Aug-18 07:00N 53°33' E 009°55'0 0.0
2017-Aug-18 06:31N 53°33' E 009°55'0 0.0
2017-Aug-18 06:00N 53°33' E 009°55'0 0.0
2017-Aug-18 05:30N 53°33' E 009°55'0 0.0
2017-Aug-18 05:00N 53°33' E 009°55'0 0.0
2017-Aug-18 04:30N 53°33' E 009°55'0 0.0
2017-Aug-18 04:01N 53°33' E 009°55'0 0.0
2017-Aug-18 03:30N 53°33' E 009°55'0 0.0
2017-Aug-18 03:00N 53°33' E 009°55'0 0.0
2017-Aug-18 02:30N 53°33' E 009°55'0 0.0
2017-Aug-18 02:00N 53°33' E 009°55'0 0.0
2017-Aug-18 01:30N 53°33' E 009°55'0 0.0
2017-Aug-18 01:00N 53°33' E 009°55'0 0.0
2017-Aug-18 00:30N 53°33' E 009°55'0 0.0
2017-Aug-18 00:00N 53°33' E 009°55'0 0.0
2017-Aug-17 23:31N 53°33' E 009°55'0 0.0
2017-Aug-17 23:00N 53°33' E 009°55'0 0.0
2017-Aug-17 22:30N 53°33' E 009°55'2 4.9
2017-Aug-17 22:00N 53°32' E 009°59'0 0.1
2017-Aug-17 21:30N 53°32' E 009°59'2 3.6
2017-Aug-17 21:00N 53°32' E 009°56'2 4.3
2017-Aug-17 20:30N 53°30' E 009°57'1 1.3
2017-Aug-17 20:00N 53°31' E 009°57'2 4.5
2017-Aug-17 19:30N 53°33' E 009°55'0 0.6
2017-Aug-17 19:00N 53°33' E 009°55'0 0.0
2017-Aug-17 18:30N 53°33' E 009°55'0 0.0
2017-Aug-17 18:00N 53°33' E 009°55'0 0.0
2017-Aug-17 17:30N 53°33' E 009°55'0 0.0
2017-Aug-17 17:00N 53°33' E 009°55'0 0.0
2017-Aug-17 16:30N 53°33' E 009°55'3 5.1
2017-Aug-17 16:00N 53°30' E 009°57'1 2.0
2017-Aug-17 15:30N 53°29' E 009°57'0 0.6
2017-Aug-17 15:00N 53°30' E 009°57'3 6.4
2017-Aug-17 14:30N 53°33' E 009°55'0 0.1
2017-Aug-17 14:00N 53°33' E 009°55'0 0.0
2017-Aug-17 13:30N 53°33' E 009°55'0 0.0
2017-Aug-17 13:00N 53°33' E 009°55'0 0.0
2017-Aug-17 12:30N 53°33' E 009°55'0 0.0
2017-Aug-17 12:00N 53°33' E 009°55'0 0.0
2017-Aug-17 11:30N 53°33' E 009°55'0 0.0
2017-Aug-17 11:00N 53°33' E 009°55'0 0.0
2017-Aug-17 10:30N 53°33' E 009°55'1 2.8
2017-Aug-17 10:00N 53°32' E 009°58'1 1.0
2017-Aug-17 09:30N 53°33' E 009°59'0 0.9
2017-Aug-17 09:00N 53°32' E 009°59'1 2.2
2017-Aug-17 08:30N 53°33' E 009°57'1 1.8
2017-Aug-17 08:00N 53°33' E 009°55'0 0.0
2017-Aug-17 07:30N 53°33' E 009°55'0 0.0
2017-Aug-17 07:00N 53°33' E 009°55'0 0.0
2017-Aug-17 06:30N 53°33' E 009°55'0 0.0
2017-Aug-17 06:00N 53°33' E 009°55'0 0.0
2017-Aug-17 05:30N 53°33' E 009°55'2 3.6
2017-Aug-17 05:00N 53°33' E 009°58'1 1.3
2017-Aug-17 04:30N 53°32' E 009°59'3 5.3
2017-Aug-17 04:00N 53°32' E 009°55'0 0.7
2017-Aug-17 03:30N 53°32' E 009°54'1 1.3
2017-Aug-17 03:00N 53°33' E 009°55'0 0.0
2017-Aug-17 02:30N 53°33' E 009°55'0 0.0
2017-Aug-17 02:00N 53°33' E 009°55'0 0.0
2017-Aug-17 01:30N 53°33' E 009°55'0 0.0
2017-Aug-17 01:00N 53°33' E 009°55'0 0.0
2017-Aug-17 00:30N 53°33' E 009°55'0 0.0
2017-Aug-17 00:00N 53°33' E 009°55'0 0.0
2017-Aug-16 23:30N 53°33' E 009°55'0 0.0
2017-Aug-16 23:00N 53°33' E 009°55'0 0.0
2017-Aug-16 22:30N 53°33' E 009°55'0 0.0
2017-Aug-16 22:00N 53°33' E 009°55'0 0.0
2017-Aug-16 21:30N 53°33' E 009°55'0 0.0
2017-Aug-16 21:00N 53°33' E 009°55'0 0.0
2017-Aug-16 20:30N 53°33' E 009°55'0 0.0
2017-Aug-16 20:00N 53°33' E 009°55'0 0.0
2017-Aug-16 19:30N 53°33' E 009°55'0 0.0
2017-Aug-16 19:00N 53°33' E 009°55'0 0.0
2017-Aug-16 18:30N 53°33' E 009°55'0 0.0
2017-Aug-16 18:00N 53°33' E 009°55'0 0.0
2017-Aug-16 17:30N 53°33' E 009°55'0 0.0
2017-Aug-16 17:00N 53°33' E 009°55'0 0.0
2017-Aug-16 16:30N 53°33' E 009°55'0 0.0
2017-Aug-16 16:00N 53°33' E 009°55'0 0.0
2017-Aug-16 15:31N 53°33' E 009°55'0 0.0
2017-Aug-16 15:01N 53°33' E 009°55'0 0.0
2017-Aug-16 14:31N 53°33' E 009°55'0 0.0
2017-Aug-16 14:00N 53°33' E 009°55'0 0.0
2017-Aug-16 13:30N 53°33' E 009°55'0 0.0
2017-Aug-16 13:01N 53°33' E 009°55'0 0.0
2017-Aug-16 12:30N 53°33' E 009°55'1 1.3
2017-Aug-16 12:00N 53°32' E 009°54'0 0.0
2017-Aug-16 11:30N 53°32' E 009°54'1 1.8
2017-Aug-16 11:00N 53°32' E 009°55'1 2.2
2017-Aug-16 10:30N 53°32' E 009°54'3 5.1
2017-Aug-16 10:00N 53°33' E 009°50'4 7.9
2017-Aug-16 09:30N 53°34' E 009°43'0 0.0
2017-Aug-16 09:00N 53°34' E 009°43'3 6.3
2017-Aug-16 08:30N 53°33' E 009°49'4 8.2
2017-Aug-16 08:00N 53°33' E 009°55'0 0.0
2017-Aug-16 07:30N 53°33' E 009°55'0 0.0
2017-Aug-16 07:00N 53°33' E 009°55'0 0.0
2017-Aug-16 06:31N 53°33' E 009°55'0 0.0
2017-Aug-16 06:00N 53°33' E 009°55'0 0.0
2017-Aug-16 05:30N 53°33' E 009°55'0 0.0
2017-Aug-16 05:00N 53°33' E 009°55'0 0.0
2017-Aug-16 04:30N 53°33' E 009°55'0 0.0
2017-Aug-16 04:00N 53°33' E 009°55'0 0.0
2017-Aug-16 03:30N 53°33' E 009°55'0 0.0
2017-Aug-16 03:00N 53°33' E 009°55'0 0.0
2017-Aug-16 02:30N 53°33' E 009°55'0 0.0
2017-Aug-16 02:00N 53°33' E 009°55'0 0.0
2017-Aug-16 01:30N 53°33' E 009°55'0 0.0
2017-Aug-16 01:00N 53°33' E 009°55'0 0.0
2017-Aug-16 00:30N 53°33' E 009°55'0 0.0
2017-Aug-16 00:00N 53°33' E 009°55'0 0.0
2017-Aug-15 23:30N 53°33' E 009°55'0 0.0
2017-Aug-15 23:00N 53°33' E 009°55'0 0.0
2017-Aug-15 22:30N 53°33' E 009°55'0 0.0
2017-Aug-15 22:00N 53°33' E 009°55'2 3.6
2017-Aug-15 21:30N 53°31' E 009°56'0 0.0
2017-Aug-15 21:00N 53°31' E 009°56'0 0.5
2017-Aug-15 20:30N 53°31' E 009°56'0 0.3
2017-Aug-15 20:00N 53°31' E 009°56'2 3.3
2017-Aug-15 19:30N 53°32' E 009°54'1 1.3
2017-Aug-15 19:00N 53°33' E 009°55'0 0.0
2017-Aug-15 18:30N 53°33' E 009°55'0 0.0
2017-Aug-15 18:00N 53°33' E 009°55'0 0.0
2017-Aug-15 17:30N 53°33' E 009°55'0 0.0
2017-Aug-15 17:00N 53°33' E 009°55'0 0.0
2017-Aug-15 16:30N 53°33' E 009°55'0 0.0
2017-Aug-15 16:00N 53°33' E 009°55'0 0.0
2017-Aug-15 15:30N 53°33' E 009°55'0 0.0
2017-Aug-15 15:00N 53°33' E 009°55'0 0.0
2017-Aug-15 14:30N 53°33' E 009°55'2 4.4
2017-Aug-15 14:00N 53°30' E 009°56'0 0.4
2017-Aug-15 13:30N 53°30' E 009°56'0 0.4
2017-Aug-15 13:00N 53°30' E 009°56'1 1.9
2017-Aug-15 12:30N 53°31' E 009°56'3 6.5
2017-Aug-15 12:01N 53°33' E 009°52'1 1.9
2017-Aug-15 11:30N 53°33' E 009°50'1 1.2
2017-Aug-15 11:00N 53°33' E 009°49'2 4.1
2017-Aug-15 10:30N 53°34' E 009°46'2 4.2
2017-Aug-15 10:00N 53°34' E 009°42'3 5.2
2017-Aug-15 09:30N 53°34' E 009°38'3 6.3
2017-Aug-15 09:00N 53°37' E 009°34'3 5.9
2017-Aug-15 08:30N 53°39' E 009°31'1 1.0
2017-Aug-15 08:00N 53°39' E 009°31'1 1.8
2017-Aug-15 07:31N 53°40' E 009°30'1 1.9
2017-Aug-15 07:00N 53°39' E 009°31'0 0.0
2017-Aug-15 06:30N 53°39' E 009°31'1 1.7
2017-Aug-15 06:00N 53°39' E 009°31'4 8.3
2017-Aug-15 05:30N 53°36' E 009°36'5 9.3
2017-Aug-15 05:00N 53°34' E 009°43'4 7.6
2017-Aug-15 04:31N 53°33' E 009°50'3 6.8
2017-Aug-15 04:00N 53°33' E 009°55'0 0.1
2017-Aug-15 03:30N 53°33' E 009°55'0 0.0
2017-Aug-15 03:00N 53°33' E 009°55'0 0.0
2017-Aug-15 02:30N 53°33' E 009°55'0 0.0
2017-Aug-15 02:00N 53°33' E 009°55'0 0.0
2017-Aug-15 01:30N 53°33' E 009°55'0 0.0
2017-Aug-15 01:00N 53°33' E 009°55'0 0.0
2017-Aug-15 00:31N 53°33' E 009°55'0 0.0
2017-Aug-15 00:00N 53°33' E 009°55'0 0.0
2017-Aug-14 23:30N 53°33' E 009°55'0 0.0
2017-Aug-14 23:00N 53°33' E 009°55'0 0.0
2017-Aug-14 22:30N 53°33' E 009°55'0 0.0
2017-Aug-14 22:00N 53°33' E 009°55'0 0.0
2017-Aug-14 21:30N 53°33' E 009°55'0 0.0
2017-Aug-14 21:00N 53°33' E 009°55'0 0.0
2017-Aug-14 20:30N 53°33' E 009°55'0 0.0
2017-Aug-14 20:00N 53°33' E 009°55'0 0.0
2017-Aug-14 19:30N 53°33' E 009°55'0 0.0
2017-Aug-14 19:00N 53°33' E 009°55'0 0.0
2017-Aug-14 18:30N 53°33' E 009°55'0 0.0
2017-Aug-14 18:00N 53°33' E 009°55'0 0.0
2017-Aug-14 17:30N 53°33' E 009°55'0 0.0
2017-Aug-14 17:01N 53°33' E 009°55'0 0.0
2017-Aug-14 16:30N 53°33' E 009°55'0 0.5
2017-Aug-14 16:00N 53°32' E 009°56'3 5.3
2017-Aug-14 15:30N 53°30' E 009°58'1 2.5
2017-Aug-14 15:00N 53°29' E 009°59'1 2.8
2017-Aug-14 14:30N 53°30' E 009°58'3 5.4
2017-Aug-14 14:00N 53°33' E 009°55'0 0.0
2017-Aug-14 13:30N 53°33' E 009°55'0 0.0
2017-Aug-14 13:00N 53°33' E 009°55'0 0.0
2017-Aug-14 12:30N 53°33' E 009°55'0 0.0
2017-Aug-14 12:00N 53°33' E 009°55'0 0.0
2017-Aug-14 11:30N 53°33' E 009°55'0 0.0
2017-Aug-14 11:00N 53°33' E 009°55'0 0.0
2017-Aug-14 10:30N 53°33' E 009°55'0 0.0
2017-Aug-14 10:00N 53°33' E 009°55'0 0.0
2017-Aug-14 09:30N 53°33' E 009°55'0 0.0
2017-Aug-14 09:00N 53°33' E 009°55'0 0.0
2017-Aug-14 08:30N 53°33' E 009°55'0 0.0
2017-Aug-14 08:00N 53°33' E 009°55'0 0.0
2017-Aug-14 07:31N 53°33' E 009°55'0 0.0
2017-Aug-14 07:00N 53°33' E 009°55'0 0.0
2017-Aug-14 06:31N 53°33' E 009°55'0 0.0
2017-Aug-14 06:00N 53°33' E 009°55'0 0.0
2017-Aug-14 05:30N 53°33' E 009°55'0 0.0
2017-Aug-14 05:00N 53°33' E 009°55'0 0.0
2017-Aug-14 04:30N 53°33' E 009°55'0 0.0
2017-Aug-14 04:00N 53°33' E 009°55'0 0.0
2017-Aug-14 03:30N 53°33' E 009°55'0 0.0
2017-Aug-14 03:00N 53°33' E 009°55'0 0.7
2017-Aug-14 02:30N 53°32' E 009°55'1 1.2
2017-Aug-14 02:00N 53°32' E 009°54'2 3.8
2017-Aug-14 01:30N 53°33' E 009°51'3 5.6
2017-Aug-14 01:00N 53°33' E 009°55'  

Dump ship's entire track history